Flight Track Log - Related Links

Times and Time Zones

All times are in EST time to prevent confusion due to time zone crossing. See the N884FT flight status page for this flight to view local times or setup timezone preferences in your user account.


Time Position Orientation Groundspeed Altitude Reporting Facility
EST Latitude Longitude Course Direction KTS MPH feet Rate Location/Type
Sun 10:36:46 AM 28.0000 -82.5167 60° Northeast 93 107 1,800  Level Tampa TRACON
Sun 10:37:46 AM 28.0167 -82.4833 60° Northeast 101 116 2,500 700 Climbing Tampa TRACON
Sun 10:38:46 AM 28.0167 -82.4500 90° East 111 128 3,200 700 Climbing Tampa TRACON
Sun 10:39:46 AM 28.0000 -82.4167 120° Southeast 114 131 3,900 500 Climbing Tampa TRACON
Sun 10:40:46 AM 28.0167 -82.3833 60° Northeast 120 138 4,200 100 Climbing Tampa TRACON
Sun 10:41:46 AM 28.0000 -82.3333 111° Southeast 131 151 4,100 50 Descending Tampa TRACON
Sun 10:42:46 AM 28.0000 -82.3000 90° East 130 150 4,300 446 Climbing Tampa TRACON
Sun 10:43:47 AM 28.0000 -82.2667 90° East 121 139 5,000 400 Climbing Tampa TRACON
Sun 10:44:46 AM 28.0000 -82.2167 90° East 124 143 5,100 60 Climbing Tampa TRACON
Sun 10:47:07 AM 28.0000 -82.1167 90° East 130 150 5,200  Climbing Orlando TRACON
Sun 10:48:07 AM 27.9833 -82.0833 120° Southeast 136 157 5,100 -50 Descending Orlando TRACON
Sun 10:49:06 AM 27.9833 -82.0333 90° East 144 166 5,100  Level Orlando TRACON
Sun 10:50:07 AM 27.9833 -81.9833 90° East 141 162 5,100  Level Orlando TRACON
Sun 10:51:07 AM 28.0000 -81.9500 60° Northeast 146 168 5,100 50 Level Orlando TRACON
Sun 10:52:07 AM 28.0000 -81.9000 90° East 148 170 5,200 53 Climbing Orlando TRACON
Sun 10:53:01 AM 28.0000 -81.8667 90° East 148 170 5,200 -52 Level Orlando TRACON
Sun 10:54:02 AM 28.0167 -81.8167 69° East 150 173 5,100 -47 Descending Orlando TRACON
Sun 10:55:08 AM 28.0167 -81.7667 90° East 150 173 5,100  Level Orlando TRACON
Sun 10:56:08 AM 28.0333 -81.7167 69° East 147 169 5,100 50 Level Orlando TRACON
Sun 10:57:08 AM 28.0333 -81.6667 90° East 146 168 5,200 -200 Climbing Orlando TRACON
Sun 10:58:08 AM 28.0333 -81.6167 90° East 145 167 4,700 -600 Descending Orlando TRACON
Sun 10:59:08 AM 28.0500 -81.5833 60° Northeast 144 166 4,000 -645 Descending Orlando TRACON
Sun 11:00:09 AM 28.0500 -81.5333 90° East 136 157 3,400 -397 Descending Orlando TRACON
Sun 11:01:09 AM 28.0500 -81.5000 90° East 134 154 3,200 -158 Descending Orlando TRACON
Sun 11:02:03 AM 28.0667 -81.4500 69° East 141 162 3,100 -50 Descending Orlando TRACON
Sun 11:03:09 AM 28.0667 -81.4000 90° East 147 169 3,100  Level Orlando TRACON
Sun 11:04:09 AM 28.0667 -81.3667 90° East 143 165 3,100  Level Orlando TRACON
Sun 11:05:09 AM 28.0833 -81.3167 69° East 139 160 3,100  Level Orlando TRACON
Sun 11:06:09 AM 28.0833 -81.2833 90° East 137 158 3,100  Level Orlando TRACON
Sun 11:07:10 AM 28.0833 -81.2333 90° East 151 174 3,100 298 Level Orlando TRACON
Sun 11:08:10 AM 28.1000 -81.1833 69° East 132 152 3,700 700 Climbing Orlando TRACON
Sun 11:09:10 AM 28.1000 -81.1500 90° East 130 150 4,500 650 Climbing Orlando TRACON
Sun 11:10:10 AM 28.0833 -81.1000 111° Southeast 135 155 5,000 263 Climbing Orlando TRACON
Sun 11:11:04 AM 28.0667 -81.0667 120° Southeast 142 163 5,000  Level Orlando TRACON

Login

Don't have an account? Register now (free) for customized features, flight alerts, and more!